Youghal, Ireland
Current Conditions -  °F | °C
As of 3:30 PM on Friday 24 Oct 2014 (Local Time) from EICK Reporting Station
Scattered Clouds Scattered Clouds  
Wind Chill: 55°   Ceiling: Unl
Heat Index: 55°   Visibility: 6mi
Dew Point: 45°   Wind: 13mph
Humidity: 67%   Direction: 250°WSW
Pressure: 29.91"   Gusts: NA
Location:  51.95°N, 7.85°W
Report Text: EICK 241430Z 25011KT 9999 SCT030 SCT048 13/07 Q1013 NOSIG
Loading
Personal Weather Stations






























Interactive Weather Map
Tropical Storm Tracking
New forecast layout! Learn more

10-Day Weather Forecast

Advertisements
Track Severe Weather on mobile